Time;durP1;ratioP1;P1;durP2;ratioP2;P2;SDS_P1;SDS_P2;PMS_P1;PMS_P2;Temp;Humidity;BMP_temperature;BMP_pressure;BME280_temperature;BME280_humidity;BME280_pressure;Samples;Min_cycle;Max_cycle;Signal;HPM_P1;HPM_P2
2023/02/07 00:07:22;;;;;;;12.35;5.00;;;-0.10;99.90;;;;;;20857981;28;20037;-75
2023/02/07 00:17:23;;;;;;;10.05;4.95;;;-0.10;99.90;;;;;;20919939;28;20036;-76
2023/02/07 00:27:24;;;;;;;9.55;4.95;;;-0.20;99.90;;;;;;20906845;28;20036;-76
2023/02/07 00:37:25;;;;;;;11.32;5.45;;;-0.30;99.90;;;;;;20875970;28;20396;-76
2023/02/07 00:47:26;;;;;;;7.80;5.00;;;-0.40;99.90;;;;;;20825080;28;20041;-77
2023/02/07 00:57:27;;;;;;;10.98;5.90;;;-0.50;99.90;;;;;;20824848;28;20423;-76
2023/02/07 01:07:27;;;;;;;12.27;6.03;;;-0.60;99.90;;;;;;20855986;28;20025;-76
2023/02/07 01:17:28;;;;;;;13.98;6.57;;;-0.70;99.90;;;;;;20904862;28;20465;-74
2023/02/07 01:27:30;;;;;;;16.17;8.07;;;-0.70;99.90;;;;;;20906255;28;20665;-77
2023/02/07 01:37:31;;;;;;;14.05;7.00;;;-0.80;99.90;;;;;;20889156;28;20446;-76
2023/02/07 01:47:33;;;;;;;17.40;7.55;;;-0.80;99.90;;;;;;20839536;28;20025;-77
2023/02/07 01:57:34;;;;;;;13.27;7.47;;;-0.90;99.90;;;;;;20839025;28;20029;-76
2023/02/07 02:07:36;;;;;;;21.88;8.95;;;-0.90;99.90;;;;;;20845534;28;20060;-77
2023/02/07 02:18:01;;;;;;;17.75;8.60;;;-1.10;99.90;;;;;;20836925;28;20021;-76
2023/02/07 02:28:21;;;;;;;17.10;8.27;;;-1.00;99.90;;;;;;20833438;28;20037;-76
2023/02/07 02:38:41;;;;;;;17.50;7.45;;;-1.10;99.90;;;;;;20793015;28;20508;-76
2023/02/07 02:48:43;;;;;;;16.98;8.55;;;-1.10;99.90;;;;;;20843360;28;20091;-76
2023/02/07 02:59:05;;;;;;;15.23;7.50;;;-1.10;99.90;;;;;;20832372;28;20076;-77
2023/02/07 03:09:47;;;;;;;19.23;7.75;;;-1.00;99.90;;;;;;20829966;28;20029;-76
2023/02/07 03:20:00;;;;;;;13.32;7.60;;;-1.00;99.90;;;;;;20830688;28;20404;-75
2023/02/07 03:30:08;;;;;;;22.65;7.95;;;-1.10;99.90;;;;;;20830277;28;20500;-75
2023/02/07 03:40:10;;;;;;;15.75;7.57;;;-1.20;99.90;;;;;;20829568;28;20396;-76
2023/02/07 03:50:12;;;;;;;17.05;7.20;;;-1.20;99.90;;;;;;20828598;28;20061;-77
2023/02/07 04:00:14;;;;;;;15.30;7.47;;;-1.30;99.90;;;;;;20827894;28;20400;-77
2023/02/07 04:10:16;;;;;;;12.23;7.28;;;-1.20;99.90;;;;;;20776970;28;20061;-77
2023/02/07 04:20:18;;;;;;;22.40;7.90;;;-1.20;99.90;;;;;;20745565;28;20448;-77
2023/02/07 04:30:19;;;;;;;18.85;8.63;;;-1.30;99.90;;;;;;20744780;28;20108;-77
2023/02/07 04:40:19;;;;;;;18.02;9.20;;;-1.40;99.90;;;;;;20798704;28;20033;-77
2023/02/07 04:50:20;;;;;;;19.52;9.55;;;-1.40;99.90;;;;;;20825644;28;20033;-78
2023/02/07 05:00:21;;;;;;;19.75;9.70;;;-1.40;99.90;;;;;;20830757;28;20068;-77
2023/02/07 05:10:22;;;;;;;19.92;10.18;;;-1.30;99.90;;;;;;20851874;28;20060;-78
2023/02/07 05:20:23;;;;;;;21.35;10.80;;;-1.60;99.90;;;;;;20841438;28;20064;-76
2023/02/07 05:30:24;;;;;;;25.35;11.55;;;-1.60;99.90;;;;;;20841761;28;20029;-77
2023/02/07 05:40:26;;;;;;;24.67;11.00;;;-1.70;99.90;;;;;;20854716;28;20400;-77
2023/02/07 05:50:27;;;;;;;22.23;10.90;;;-1.80;99.90;;;;;;20800338;28;20026;-77
2023/02/07 06:00:39;;;;;;;24.25;11.57;;;-1.80;99.90;;;;;;20757253;28;20029;-78
2023/02/07 06:10:40;;;;;;;29.58;11.48;;;-1.80;99.90;;;;;;20814564;28;20098;-78
2023/02/07 06:20:40;;;;;;;27.10;11.32;;;-1.90;99.90;;;;;;20836858;28;20069;-77
2023/02/07 06:30:41;;;;;;;26.10;11.20;;;-2.00;99.90;;;;;;20820968;28;20034;-75
2023/02/07 06:40:43;;;;;;;22.35;10.23;;;-2.00;99.90;;;;;;20779671;28;20033;-79
2023/02/07 06:50:44;;;;;;;24.38;11.10;;;-2.10;99.90;;;;;;20753588;28;20065;-78
2023/02/07 07:00:45;;;;;;;21.85;11.10;;;-2.10;99.90;;;;;;20751967;28;20026;-77
2023/02/07 07:10:46;;;;;;;24.80;10.43;;;-2.20;99.90;;;;;;20869345;28;20063;-77
2023/02/07 07:20:55;;;;;;;25.52;11.32;;;-2.00;99.90;;;;;;20916137;28;20033;-76
2023/02/07 07:31:02;;;;;;;25.02;11.45;;;-1.60;99.90;;;;;;20923666;28;20037;-76
2023/02/07 07:41:03;;;;;;;22.08;10.15;;;-0.90;99.90;;;;;;20851572;28;20053;-77
2023/02/07 07:51:04;;;;;;;27.35;12.25;;;-0.50;99.90;;;;;;20782851;28;20033;-76
2023/02/07 08:01:05;;;;;;;24.00;11.80;;;0.20;99.90;;;;;;20747001;28;20125;-77
2023/02/07 08:11:08;;;;;;;20.17;10.80;;;0.40;99.90;;;;;;20808107;28;20658;-76
2023/02/07 08:21:09;;;;;;;30.00;14.32;;;1.10;99.90;;;;;;20828110;28;20029;-77
2023/02/07 08:31:11;;;;;;;22.75;11.35;;;1.50;99.90;;;;;;20827668;28;20048;-76
2023/02/07 08:41:11;;;;;;;23.10;10.98;;;1.60;99.90;;;;;;20826710;28;20029;-75
2023/02/07 08:51:12;;;;;;;28.30;14.60;;;1.90;99.90;;;;;;20828056;28;20040;-76
2023/02/07 09:01:13;;;;;;;22.83;11.60;;;3.20;99.90;;;;;;20789325;28;20401;-76
2023/02/07 09:11:14;;;;;;;21.35;10.77;;;3.80;99.90;;;;;;20808451;28;20075;-76
2023/02/07 09:21:15;;;;;;;26.38;12.90;;;3.70;99.90;;;;;;20827953;28;20034;-76
2023/02/07 09:31:16;;;;;;;19.08;10.90;;;4.40;99.90;;;;;;20827267;28;20125;-76
2023/02/07 09:41:37;;;;;;;36.30;16.23;;;4.70;99.90;;;;;;20822777;28;20068;-76
2023/02/07 09:51:39;;;;;;;53.17;22.43;;;4.70;99.90;;;;;;20827189;28;20045;-74
2023/02/07 10:01:45;;;;;;;25.35;13.23;;;5.60;99.90;;;;;;20803313;28;20044;-75
2023/02/07 10:12:07;;;;;;;20.83;11.90;;;5.40;99.90;;;;;;20755359;28;20378;-75
2023/02/07 10:22:36;;;;;;;17.40;10.70;;;5.80;99.90;;;;;;20754560;28;20371;-75
2023/02/07 10:32:38;;;;;;;20.67;11.27;;;5.80;99.90;;;;;;20753631;28;20034;-75
2023/02/07 10:42:40;;;;;;;21.73;12.27;;;5.80;99.90;;;;;;20900878;28;20516;-75
2023/02/07 10:52:53;;;;;;;20.63;11.25;;;6.20;99.90;;;;;;20916079;28;20040;-76
2023/02/07 11:03:05;;;;;;;22.33;12.63;;;6.90;99.90;;;;;;20914931;28;20186;-76
2023/02/07 11:13:18;;;;;;;20.75;11.75;;;7.40;99.90;;;;;;20838602;28;20042;-76
2023/02/07 11:23:19;;;;;;;19.05;10.77;;;7.40;99.90;;;;;;20831075;28;20025;-75
2023/02/07 11:33:23;;;;;;;20.33;10.43;;;7.70;99.90;;;;;;20830633;28;20068;-75
2023/02/07 11:43:24;;;;;;;18.20;10.40;;;7.90;99.90;;;;;;20910251;28;20033;-75
2023/02/07 11:53:42;;;;;;;17.37;10.27;;;8.70;99.90;;;;;;20911264;28;20033;-73
2023/02/07 12:03:48;;;;;;;16.73;9.07;;;9.30;99.60;;;;;;20909919;28;20037;-75
2023/02/07 12:14:24;;;;;;;19.50;11.20;;;8.60;99.90;;;;;;20827667;28;20057;-75
2023/02/07 12:25:12;;;;;;;17.85;10.60;;;8.20;99.80;;;;;;20826567;28;20088;-75
2023/02/07 12:35:27;;;;;;;17.25;10.27;;;9.00;99.70;;;;;;20816390;28;20124;-75
2023/02/07 12:46:00;;;;;;;17.75;10.13;;;8.30;99.60;;;;;;20815887;28;20069;-75
2023/02/07 12:56:25;;;;;;;22.75;11.40;;;10.00;99.90;;;;;;20814647;28;20043;-75
2023/02/07 13:06:44;;;;;;;20.17;11.13;;;9.80;98.70;;;;;;20773444;28;20120;-75
2023/02/07 13:17:19;;;;;;;36.22;16.73;;;9.40;98.30;;;;;;20824039;28;20514;-75
2023/02/07 13:27:23;;;;;;;25.10;12.88;;;8.90;98.90;;;;;;20830437;28;20033;-74
2023/02/07 13:37:46;;;;;;;18.00;9.95;;;8.10;99.90;;;;;;20838682;28;20037;-74
2023/02/07 13:47:54;;;;;;;25.60;12.45;;;9.50;99.30;;;;;;20838642;28;20087;-75
2023/02/07 14:08:15;;;;;;;32.28;13.48;;;8.50;98.80;;;;;;20874975;28;20089;-75
2023/02/07 14:18:39;;;;;;;20.80;10.68;;;9.40;99.60;;;;;;20892072;28;20038;-74
2023/02/07 14:28:42;;;;;;;21.45;11.63;;;9.30;99.30;;;;;;20835122;28;20179;-75
2023/02/07 14:38:44;;;;;;;23.38;12.57;;;9.10;99.40;;;;;;20833317;28;20112;-75
2023/02/07 14:48:59;;;;;;;19.02;10.65;;;8.40;99.70;;;;;;20836118;28;20025;-75
2023/02/07 14:58:59;;;;;;;20.70;11.90;;;8.60;99.90;;;;;;20810934;28;20559;-75
2023/02/07 15:09:01;;;;;;;20.67;10.97;;;8.40;99.70;;;;;;20782405;28;20059;-75
2023/02/07 15:19:06;;;;;;;20.30;11.13;;;7.50;99.90;;;;;;20749765;28;20281;-75
2023/02/07 15:29:21;;;;;;;22.58;12.02;;;7.80;99.90;;;;;;20756866;28;20053;-75
2023/02/07 15:39:25;;;;;;;23.10;12.15;;;7.60;99.90;;;;;;20830118;28;20063;-75
2023/02/07 15:49:35;;;;;;;22.88;11.75;;;7.60;99.90;;;;;;20831053;28;20478;-76
2023/02/07 15:59:37;;;;;;;23.23;13.43;;;7.30;99.90;;;;;;20828469;28;20126;-76
2023/02/07 16:09:43;;;;;;;45.92;19.35;;;7.00;99.90;;;;;;20876750;28;20044;-75
2023/02/07 16:19:45;;;;;;;35.88;17.10;;;6.00;99.90;;;;;;20855073;28;20025;-74
2023/02/07 16:29:46;;;;;;;19.88;11.10;;;5.10;99.90;;;;;;20816218;28;20025;-74
2023/02/07 16:39:47;;;;;;;20.10;10.48;;;4.20;99.90;;;;;;20866296;28;20094;-75
2023/02/07 16:49:48;;;;;;;;;;;3.80;99.90;;;;;;20811994;28;20048;-75
2023/02/07 16:59:48;;;;;;;22.33;11.10;;;3.30;99.90;;;;;;20836753;28;19916;-76
2023/02/07 17:09:49;;;;;;;23.15;10.65;;;2.50;99.90;;;;;;20802105;28;20022;-76
2023/02/07 17:19:50;;;;;;;23.50;11.82;;;1.90;99.90;;;;;;20803560;28;20034;-76
2023/02/07 17:29:51;;;;;;;24.88;11.77;;;1.70;99.90;;;;;;20783403;28;20030;-76
2023/02/07 17:39:51;;;;;;;23.35;11.50;;;1.50;99.90;;;;;;20815991;28;20476;-76
2023/02/07 17:49:52;;;;;;;24.10;12.15;;;1.40;99.90;;;;;;20792392;28;20014;-76
2023/02/07 17:59:53;;;;;;;26.70;12.45;;;1.10;99.90;;;;;;20792762;28;20049;-76
2023/02/07 18:09:54;;;;;;;27.60;13.48;;;0.90;99.90;;;;;;20796305;28;20558;-75
2023/02/07 18:19:54;;;;;;;28.67;13.98;;;0.70;99.90;;;;;;20813163;28;20026;-75
2023/02/07 18:29:55;;;;;;;27.48;13.35;;;0.70;99.90;;;;;;20818999;28;20049;-75
2023/02/07 18:39:56;;;;;;;30.27;13.43;;;0.60;99.90;;;;;;20829719;28;20398;-74
2023/02/07 18:49:57;;;;;;;33.97;14.48;;;0.40;99.90;;;;;;20833202;28;20091;-74
2023/02/07 18:59:58;;;;;;;32.58;14.18;;;0.30;99.90;;;;;;20833077;28;20574;-74
2023/02/07 19:10:00;;;;;;;31.60;15.05;;;0.20;99.90;;;;;;20825515;28;20060;-75
2023/02/07 19:20:00;;;;;;;28.10;14.00;;;-0.10;99.90;;;;;;20831803;28;20511;-73
2023/02/07 19:30:01;;;;;;;31.08;14.27;;;-0.10;99.90;;;;;;20850834;28;20028;-75
2023/02/07 19:40:02;;;;;;;34.67;14.43;;;-0.20;99.90;;;;;;20858686;28;20036;-74
2023/02/07 19:50:03;;;;;;;24.77;12.25;;;-0.40;99.90;;;;;;20831968;28;20076;-73
2023/02/07 20:00:04;;;;;;;27.67;13.30;;;-0.50;99.90;;;;;;20829644;28;20030;-73
2023/02/07 20:10:06;;;;;;;32.72;15.02;;;-0.60;99.90;;;;;;20827715;28;20072;-75
2023/02/07 20:20:07;;;;;;;28.35;14.85;;;-0.60;99.90;;;;;;20828529;28;20032;-73
2023/02/07 20:30:08;;;;;;;33.35;14.63;;;-0.50;99.90;;;;;;20822144;28;20033;-74
2023/02/07 20:40:09;;;;;;;35.05;15.55;;;-0.70;99.90;;;;;;20826017;28;20109;-74
2023/02/07 20:50:10;;;;;;;37.53;16.95;;;-0.90;99.90;;;;;;20784233;28;20034;-75
2023/02/07 21:00:12;;;;;;;36.15;16.92;;;-1.00;99.90;;;;;;20770254;28;20034;-75
2023/02/07 21:10:12;;;;;;;36.75;16.90;;;-1.00;99.90;;;;;;20784410;28;20545;-75
2023/02/07 21:20:14;;;;;;;38.20;17.35;;;-1.00;99.90;;;;;;20776281;28;20057;-74
2023/02/07 21:30:15;;;;;;;37.70;16.95;;;-1.10;99.90;;;;;;20781781;28;20040;-75
2023/02/07 21:40:17;;;;;;;38.67;16.63;;;-1.10;99.90;;;;;;20781431;28;20029;-74
2023/02/07 21:50:17;;;;;;;37.83;17.05;;;-1.20;99.90;;;;;;20790476;28;20048;-74
2023/02/07 22:00:18;;;;;;;42.88;17.98;;;-1.20;99.90;;;;;;20802741;28;20021;-76
2023/02/07 22:10:19;;;;;;;34.85;15.73;;;-1.30;99.90;;;;;;20797263;28;20033;-76
2023/02/07 22:20:20;;;;;;;36.55;15.70;;;-1.20;99.90;;;;;;20811501;28;20608;-75
2023/02/07 22:30:21;;;;;;;34.33;16.70;;;-1.20;99.90;;;;;;20908046;28;20033;-75
2023/02/07 22:40:21;;;;;;;34.92;15.68;;;-1.30;99.90;;;;;;20840038;28;20064;-75
2023/02/07 22:50:22;;;;;;;35.22;16.42;;;-1.40;99.90;;;;;;20816122;28;20029;-76
2023/02/07 23:00:23;;;;;;;34.47;15.00;;;-1.50;99.90;;;;;;20832305;28;20112;-76
2023/02/07 23:10:25;;;;;;;30.70;14.60;;;-1.60;99.90;;;;;;20832591;28;20030;-76
2023/02/07 23:20:26;;;;;;;34.35;15.55;;;-1.80;99.90;;;;;;20831967;28;20041;-76
2023/02/07 23:30:27;;;;;;;30.80;14.05;;;-1.80;99.90;;;;;;20832221;28;20108;-76
2023/02/07 23:40:28;;;;;;;33.58;14.68;;;-1.80;99.90;;;;;;20835158;28;20032;-76
2023/02/07 23:50:30;;;;;;;34.80;13.88;;;-1.90;99.90;;;;;;20829801;28;20032;-74
